Terminal Aerodrome Forecast
Issued by NWS Wilmington, NC

Home | Current Version | Previous Version | Text Only | Print | Product List | Glossary On
Versions: 1 2 3 4 5 6 7 8 9 10 11 12 13 14 15 16 17 18 19 20
000
FTUS42 KILM 221700
TAFFLO
TAF
KFLO 221724Z 2218/2318 31007KT P6SM SCT060
     FM222200 22006KT P6SM VCTS FEW040CB BKN060
      TEMPO 2300/2304 3SM TSRA BKN030CB
     FM231000 32006KT P6SM BKN015=

USA.gov is the U.S. government's official web portal to all federal, state and local government web resources and services.